Time;durP1;ratioP1;P1;durP2;ratioP2;P2;SDS_P1;SDS_P2;PMS_P1;PMS_P2;Temp;Humidity;BMP_temperature;BMP_pressure;BME280_temperature;BME280_humidity;BME280_pressure;Samples;Min_cycle;Max_cycle;Signal;HPM_P1;HPM_P2
2023/04/07 21:48:57;;;;;;;38.10;23.60;;;20.20;59.00;;;;;;5108722;27;20597;-70
2023/04/07 21:51:26;;;;;;;42.23;25.07;;;17.80;52.80;;;;;;5108745;28;20294;-73
2023/04/07 21:53:54;;;;;;;44.43;28.53;;;15.90;57.80;;;;;;5109056;28;20225;-67
2023/04/07 21:56:23;;;;;;;39.40;25.73;;;14.60;60.50;;;;;;5108869;28;20690;-70
2023/04/07 21:58:51;;;;;;;41.07;23.83;;;13.60;65.60;;;;;;5108497;28;20199;-67
2023/04/07 22:01:20;;;;;;;41.20;25.47;;;13.00;69.60;;;;;;5109013;28;20323;-68
2023/04/07 22:03:49;;;;;;;43.67;25.97;;;12.60;72.80;;;;;;5106945;28;20208;-67
2023/04/07 22:06:19;;;;;;;49.27;27.70;;;12.30;77.50;;;;;;5095697;28;20279;-69
2023/04/07 22:08:48;;;;;;;49.37;28.43;;;12.10;79.20;;;;;;5108382;28;20223;-70
2023/04/07 22:11:22;;;;;;;46.93;28.27;;;11.90;81.90;;;;;;5100492;28;20666;-66
2023/04/07 22:13:50;;;;;;;47.17;29.53;;;11.80;83.80;;;;;;5098552;28;20215;-66
2023/04/07 22:16:19;;;;;;;48.20;28.80;;;11.70;85.30;;;;;;5108437;28;20203;-71
2023/04/07 22:18:47;;;;;;;50.30;29.27;;;11.60;87.10;;;;;;5108050;28;20198;-67
2023/04/07 22:21:16;;;;;;;49.13;26.43;;;11.50;87.50;;;;;;5108219;28;20200;-67
2023/04/07 22:23:46;;;;;;;48.40;28.53;;;11.50;88.50;;;;;;5106082;28;20267;-66
2023/04/07 22:26:14;;;;;;;43.77;25.33;;;11.40;88.90;;;;;;5087943;28;20203;-68
2023/04/07 22:28:43;;;;;;;39.93;24.27;;;11.30;89.90;;;;;;5091830;28;20222;-67
2023/04/07 22:31:11;;;;;;;42.93;24.43;;;11.30;90.00;;;;;;5108278;28;20832;-66
2023/04/07 22:33:40;;;;;;;42.67;24.20;;;11.20;90.70;;;;;;5107709;28;20203;-67
2023/04/07 22:36:08;;;;;;;38.73;23.93;;;11.20;91.00;;;;;;5106859;28;20208;-67
2023/04/07 22:38:37;;;;;;;35.93;22.93;;;11.10;91.40;;;;;;5100635;28;20249;-68
2023/04/07 22:41:07;;;;;;;44.70;26.60;;;11.10;91.50;;;;;;5094059;28;20276;-68
2023/04/07 22:43:35;;;;;;;40.07;23.47;;;11.10;92.00;;;;;;5108208;28;20415;-68
2023/04/07 22:46:04;;;;;;;37.70;23.03;;;11.10;92.70;;;;;;5108294;28;20269;-67
2023/04/07 22:48:32;;;;;;;45.40;26.87;;;11.10;92.40;;;;;;5107350;28;20329;-68
2023/04/07 22:51:01;;;;;;;42.57;26.63;;;11.00;92.50;;;;;;5108533;28;20190;-68
2023/04/07 22:53:29;;;;;;;43.87;27.60;;;11.00;93.00;;;;;;5101461;28;20204;-68
2023/04/07 22:55:58;;;;;;;45.33;27.20;;;11.00;93.10;;;;;;5086816;28;20702;-68
2023/04/07 22:58:28;;;;;;;43.30;27.13;;;10.90;93.30;;;;;;5084741;28;20209;-68
2023/04/07 23:00:56;;;;;;;48.53;28.63;;;11.00;93.90;;;;;;5074398;28;20228;-68
2023/04/07 23:03:25;;;;;;;46.97;29.43;;;10.90;94.00;;;;;;5074408;28;20204;-70
2023/04/07 23:05:53;;;;;;;51.67;31.00;;;10.90;93.90;;;;;;5074186;28;20212;-67
2023/04/07 23:08:22;;;;;;;60.53;32.47;;;10.90;94.00;;;;;;5082605;28;20224;-67
2023/04/07 23:10:50;;;;;;;46.97;29.73;;;10.80;94.20;;;;;;5074070;28;20199;-68
2023/04/07 23:13:19;;;;;;;44.67;27.67;;;10.80;94.60;;;;;;5075715;28;20196;-70
2023/04/07 23:15:48;;;;;;;41.37;27.07;;;10.80;95.00;;;;;;5094242;28;20214;-68
2023/04/07 23:18:17;;;;;;;43.80;28.13;;;10.80;95.20;;;;;;5094069;28;20731;-71
2023/04/07 23:20:51;;;;;;;45.17;29.17;;;10.70;95.50;;;;;;5080382;28;20203;-66
2023/04/07 23:23:19;;;;;;;51.87;30.90;;;10.70;95.80;;;;;;5073762;28;20568;-68
2023/04/07 23:25:48;;;;;;;52.30;32.97;;;10.70;96.00;;;;;;5073840;28;20208;-68
2023/04/07 23:28:16;;;;;;;56.23;35.80;;;10.70;96.40;;;;;;5074021;28;20728;-68
2023/04/07 23:30:44;;;;;;;57.37;35.43;;;10.70;96.40;;;;;;5093988;28;20203;-68
2023/04/07 23:33:14;;;;;;;55.50;33.20;;;10.70;96.40;;;;;;5093954;28;20228;-68
2023/04/07 23:35:43;;;;;;;45.67;29.50;;;10.70;96.80;;;;;;5093943;28;20209;-70
2023/04/07 23:38:11;;;;;;;46.13;26.00;;;10.70;97.10;;;;;;5093749;28;20285;-71
2023/04/07 23:40:40;;;;;;;42.80;24.23;;;10.70;97.20;;;;;;5093827;28;20206;-68
2023/04/07 23:43:09;;;;;;;37.13;23.93;;;10.60;97.20;;;;;;5093788;28;20223;-71
2023/04/07 23:45:37;;;;;;;39.57;25.73;;;10.60;97.60;;;;;;5093586;28;20195;-71
2023/04/07 23:48:06;;;;;;;38.07;25.00;;;10.60;97.50;;;;;;5093288;28;20668;-69
2023/04/07 23:50:36;;;;;;;38.70;26.63;;;10.60;97.80;;;;;;5093668;28;20208;-72
2023/04/07 23:53:05;;;;;;;41.23;25.23;;;10.60;98.00;;;;;;5093464;28;20562;-73
2023/04/07 23:55:33;;;;;;;43.10;24.30;;;10.60;98.00;;;;;;5093560;28;20199;-70
2023/04/07 23:58:02;;;;;;;42.40;25.27;;;10.60;98.10;;;;;;5093605;28;20192;-71
